Terminal Aerodrome Forecast
Issued by NWS

Home | Current Version | Previous Version | Graphics & Text | Print | Product List | Glossary On
Versions: 1 2 3 4 5 6 7 8 9 10 11 12 13 14 15 16 17 18
000
FTUS43 KFGF 200658 AAB
TAFBJI
TAF AMD
KBJI 200658Z 2007/2106 VRB06KT P6SM -TSRA OVC035CB
      TEMPO 2007/2009 4SM -TSRA
     FM200900 17008KT P6SM VCSH OVC025
     FM201100 22009KT P6SM VCSH OVC020
     FM201800 25012KT P6SM FEW200=

USA.gov is the U.S. government's official web portal to all federal, state and local government web resources and services.